Time;durP1;ratioP1;P1;durP2;ratioP2;P2;SDS_P1;SDS_P2;PMS_P1;PMS_P2;Temp;Humidity;BMP_temperature;BMP_pressure;BME280_temperature;BME280_humidity;BME280_pressure;Samples;Min_cycle;Max_cycle;Signal;HPM_P1;HPM_P2
2022/03/08 00:01:59;;;;;;;;;;;-0.80;68.60;;;;;;5031391;28;19917;-82
2022/03/08 00:04:25;;;;;;;;;;;-0.80;69.70;;;;;;5032819;28;21545;-83
2022/03/08 00:06:51;;;;;;;;;;;-0.80;71.10;;;;;;5036281;28;19917;-82
2022/03/08 00:09:17;;;;;;;;;;;-0.90;71.80;;;;;;5036535;28;19924;-82
2022/03/08 00:11:42;;;;;;;;;;;-0.90;72.60;;;;;;5052696;28;19916;-82
2022/03/08 00:14:08;;;;;;;;;;;-1.00;73.70;;;;;;5036645;28;19923;-82
2022/03/08 00:16:33;;;;;;;;;;;-1.00;74.50;;;;;;5052858;28;19921;-83
2022/03/08 00:18:59;;;;;;;;;;;-1.10;74.50;;;;;;5081494;22;20408;-85
2022/03/08 00:21:24;;;;;;;;;;;-1.10;73.70;;;;;;5019127;28;19987;-85
2022/03/08 00:23:50;;;;;;;;;;;-1.10;73.40;;;;;;5044956;28;19923;-85
2022/03/08 00:26:16;;;;;;;;;;;-1.10;72.90;;;;;;5046097;28;20306;-85
2022/03/08 00:28:41;;;;;;;;;;;-1.10;73.60;;;;;;5049494;28;19913;-85
2022/03/08 00:31:07;;;;;;;;;;;-1.20;73.60;;;;;;5026969;28;20285;-85
2022/03/08 00:33:32;;;;;;;;;;;-1.20;74.70;;;;;;5039335;28;19996;-85
2022/03/08 00:35:58;;;;;;;;;;;-1.30;75.80;;;;;;5030167;28;19951;-85
2022/03/08 00:38:23;;;;;;;;;;;-1.30;75.00;;;;;;5048585;28;19919;-86
2022/03/08 00:40:49;;;;;;;;;;;-1.40;74.80;;;;;;5043892;28;20385;-85
2022/03/08 00:43:15;;;;;;;;;;;-1.40;74.70;;;;;;5051236;28;19909;-85
2022/03/08 00:45:40;;;;;;;;;;;-1.50;74.60;;;;;;5036736;28;19920;-85
2022/03/08 00:48:09;;;;;;;;;;;-1.50;74.30;;;;;;5050393;28;19982;-84
2022/03/08 00:50:36;;;;;;;;;;;-1.40;74.60;;;;;;5047140;28;19909;-85
2022/03/08 00:53:01;;;;;;;;;;;-1.40;76.70;;;;;;5035400;28;19921;-85
2022/03/08 00:55:28;;;;;;;;;;;-1.40;77.20;;;;;;5018091;28;20440;-85
2022/03/08 00:57:54;;;;;;;;;;;-1.40;76.50;;;;;;5023963;28;20278;-85
2022/03/08 01:00:21;;;;;;;;;;;-1.40;76.40;;;;;;5022712;28;19920;-85
2022/03/08 01:02:46;;;;;;;;;;;-1.40;76.80;;;;;;5042756;28;20032;-85
2022/03/08 01:05:13;;;;;;;;;;;-1.50;75.90;;;;;;5050676;28;19999;-85
2022/03/08 01:07:38;;;;;;;;;;;-1.50;77.50;;;;;;5036905;28;19917;-86
2022/03/08 01:10:05;;;;;;;;;;;-1.50;76.60;;;;;;5035235;28;20309;-86
2022/03/08 01:12:31;;;;;;;;;;;-1.50;76.40;;;;;;5035039;28;19943;-85
2022/03/08 01:14:56;;;;;;;;;;;-1.60;77.10;;;;;;5044292;28;19916;-85
2022/03/08 01:17:22;;;;;;;;;;;-1.60;75.90;;;;;;5036652;28;19917;-84
2022/03/08 01:19:48;;;;;;;;;;;-1.60;76.30;;;;;;5043952;28;19928;-85
2022/03/08 01:22:13;;;;;;;;;;;-1.60;77.00;;;;;;5038813;28;20393;-86
2022/03/08 01:24:39;;;;;;;;;;;-1.60;77.10;;;;;;5032573;28;19923;-86
2022/03/08 01:27:04;;;;;;;;;;;-1.70;77.60;;;;;;5043788;28;19952;-85
2022/03/08 01:29:30;;;;;;;;;;;-1.60;79.40;;;;;;5024280;28;19921;-86
2022/03/08 01:31:55;;;;;;;;;;;-1.70;79.30;;;;;;5044816;28;20009;-85
2022/03/08 01:34:21;;;;;;;;;;;-1.70;80.00;;;;;;5037545;28;20020;-85
2022/03/08 01:36:47;;;;;;;;;;;-1.70;79.90;;;;;;5039320;28;19920;-85
2022/03/08 01:39:12;;;;;;;;;;;-1.70;81.60;;;;;;5055138;28;19917;-85
2022/03/08 01:41:38;;;;;;;;;;;-1.70;83.10;;;;;;5044253;28;19920;-84
2022/03/08 01:44:03;;;;;;;;;;;-1.80;81.70;;;;;;5053229;28;19959;-85
2022/03/08 01:46:29;;;;;;;;;;;-1.80;81.80;;;;;;5045482;28;20010;-85
2022/03/08 01:48:54;;;;;;;;;;;-1.80;81.30;;;;;;5038053;28;19920;-85
2022/03/08 01:51:21;;;;;;;;;;;-1.70;80.70;;;;;;5053899;28;20254;-85
2022/03/08 01:53:47;;;;;;;;;;;-1.70;83.00;;;;;;5043438;28;19921;-85
2022/03/08 01:56:12;;;;;;;;;;;-1.70;83.80;;;;;;5040230;28;19920;-85
2022/03/08 01:58:38;;;;;;;;;;;-1.70;84.00;;;;;;5032416;28;20020;-85
2022/03/08 02:01:05;;;;;;;;;;;-1.80;84.00;;;;;;5040207;28;20413;-85
2022/03/08 02:03:31;;;;;;;;;;;-1.90;83.70;;;;;;5047659;28;19952;-85
2022/03/08 02:05:56;;;;;;;;;;;-1.90;84.30;;;;;;5022720;28;19925;-85
2022/03/08 02:08:22;;;;;;;;;;;-1.90;84.40;;;;;;5047625;28;19917;-85
2022/03/08 02:10:47;;;;;;;;;;;-1.90;86.10;;;;;;5046906;28;19940;-85
2022/03/08 02:13:13;;;;;;;;;;;-1.90;86.30;;;;;;5025425;28;20297;-85
2022/03/08 02:15:39;;;;;;;;;;;-1.90;88.30;;;;;;5047561;28;19924;-85
2022/03/08 02:18:04;;;;;;;;;;;-2.00;87.10;;;;;;5034586;28;19930;-85
2022/03/08 02:20:30;;;;;;;;;;;-2.00;86.40;;;;;;5038858;28;19917;-85
2022/03/08 02:22:56;;;;;;;;;;;-1.90;88.70;;;;;;5035420;28;19917;-85
2022/03/08 02:25:22;;;;;;;;;;;-2.00;88.00;;;;;;5047410;28;19935;-85
2022/03/08 02:27:49;;;;;;;;;;;-2.00;86.30;;;;;;5039552;28;20008;-85
2022/03/08 02:30:16;;;;;;;;;;;-2.00;86.20;;;;;;5024299;28;19952;-85
2022/03/08 02:32:41;;;;;;;;;;;-2.00;85.80;;;;;;5049215;28;19944;-85
2022/03/08 02:35:08;;;;;;;;;;;-2.00;85.00;;;;;;5034652;28;20042;-85
2022/03/08 02:37:41;;;;;;;;;;;-2.00;85.10;;;;;;5047639;28;19924;-85
2022/03/08 02:40:08;;;;;;;;;;;-2.00;86.80;;;;;;5036501;28;19924;-85
2022/03/08 02:42:34;;;;;;;;;;;-2.00;86.40;;;;;;5017746;28;19970;-85
2022/03/08 02:44:59;;;;;;;;;;;-2.00;86.30;;;;;;5040458;28;19917;-85
2022/03/08 02:47:25;;;;;;;;;;;-2.00;85.90;;;;;;5036270;28;19913;-85
2022/03/08 02:49:50;;;;;;;;;;;-2.00;85.00;;;;;;5014981;28;19940;-85
2022/03/08 02:52:16;;;;;;;;;;;-1.90;84.80;;;;;;5036737;28;20016;-85
2022/03/08 02:54:41;;;;;;;;;;;-1.90;87.30;;;;;;5024730;28;19935;-85
2022/03/08 02:57:07;;;;;;;;;;;-1.90;86.90;;;;;;5026860;28;19925;-85
2022/03/08 02:59:33;;;;;;;;;;;-1.90;87.60;;;;;;5030089;28;19948;-85
2022/03/08 03:01:58;;;;;;;;;;;-2.00;87.10;;;;;;5038641;28;19923;-85
2022/03/08 03:04:24;;;;;;;;;;;-2.00;87.90;;;;;;5030545;28;20003;-85
2022/03/08 03:06:49;;;;;;;;;;;-2.00;87.30;;;;;;5017663;28;20329;-85
2022/03/08 03:09:15;;;;;;;;;;;-2.10;87.50;;;;;;5026089;28;19916;-85
2022/03/08 03:11:40;;;;;;;;;;;-2.10;88.20;;;;;;5035052;28;20413;-85
2022/03/08 03:14:06;;;;;;;;;;;-2.10;87.80;;;;;;5023824;28;19921;-85
2022/03/08 03:16:31;;;;;;;;;;;-2.10;89.70;;;;;;5025080;28;20332;-84
2022/03/08 03:18:57;;;;;;;;;;;-2.10;88.40;;;;;;5020622;28;19921;-84
2022/03/08 03:21:22;;;;;;;;;;;-2.10;87.90;;;;;;5039606;28;19928;-85
2022/03/08 03:23:48;;;;;;;;;;;-2.10;88.50;;;;;;5013746;28;20008;-85
2022/03/08 03:26:14;;;;;;;;;;;-2.10;89.10;;;;;;5046274;28;19917;-85
2022/03/08 03:28:39;;;;;;;;;;;-2.10;88.10;;;;;;5043835;28;19936;-84
2022/03/08 03:31:05;;;;;;;;;;;-2.10;87.70;;;;;;5039333;28;20380;-85
2022/03/08 03:33:30;;;;;;;;;;;-2.10;87.60;;;;;;5016490;28;19917;-86
2022/03/08 03:35:56;;;;;;;;;;;-2.10;87.10;;;;;;5024034;28;20385;-85
2022/03/08 03:38:21;;;;;;;;;;;-2.10;90.40;;;;;;5025785;28;20015;-85
2022/03/08 03:40:47;;;;;;;;;;;-2.10;90.30;;;;;;5020092;28;20144;-85
2022/03/08 03:43:12;;;;;;;;;;;-2.10;90.20;;;;;;5019951;28;19923;-85
2022/03/08 03:45:38;;;;;;;;;;;-2.10;90.30;;;;;;5022506;28;19917;-85
2022/03/08 03:48:07;;;;;;;;;;;-2.10;90.70;;;;;;5016145;28;19923;-85
2022/03/08 03:50:33;;;;;;;;;;;-2.20;90.70;;;;;;5046687;28;20270;-85
2022/03/08 03:52:58;;;;;;;;;;;-2.20;90.40;;;;;;5018575;28;19975;-85
2022/03/08 03:55:24;;;;;;;;;;;-2.20;90.30;;;;;;5033132;28;19932;-85
2022/03/08 03:57:49;;;;;;;;;;;-2.30;89.90;;;;;;5013223;28;19975;-85
2022/03/08 04:00:15;;;;;;;;;;;-2.20;91.70;;;;;;5040431;28;19917;-85
2022/03/08 04:02:41;;;;;;;;;;;-2.20;91.00;;;;;;5033638;28;19917;-85
2022/03/08 04:05:08;;;;;;;;;;;-2.20;90.50;;;;;;5034683;28;20016;-85
2022/03/08 04:07:33;;;;;;;;;;;-2.20;90.50;;;;;;5032859;28;19913;-85
2022/03/08 04:09:59;;;;;;;;;;;-2.10;90.60;;;;;;5037541;28;20871;-86
2022/03/08 04:12:24;;;;;;;;;;;-2.20;90.90;;;;;;5031381;28;20386;-85
2022/03/08 04:14:50;;;;;;;;;;;-2.20;90.60;;;;;;5022236;28;19917;-85
2022/03/08 04:17:15;;;;;;;;;;;-2.30;90.60;;;;;;5016705;28;20276;-84
2022/03/08 04:19:42;;;;;;;;;;;-2.30;90.60;;;;;;5034713;28;19927;-84
2022/03/08 04:22:08;;;;;;;;;;;-2.30;90.80;;;;;;5040760;28;19967;-85
2022/03/08 04:24:33;;;;;;;;;;;-2.30;90.80;;;;;;5041726;28;19912;-85
2022/03/08 04:26:59;;;;;;;;;;;-2.40;91.20;;;;;;5014814;28;19924;-84
2022/03/08 04:29:24;;;;;;;;;;;-2.40;91.20;;;;;;5026992;28;19921;-84
2022/03/08 04:31:50;;;;;;;;;;;-2.50;91.20;;;;;;5034136;28;19921;-85
2022/03/08 04:34:15;;;;;;;;;;;-2.50;91.40;;;;;;5018060;28;19932;-85
2022/03/08 04:36:41;;;;;;;;;;;-2.60;91.60;;;;;;5033852;28;19924;-85
2022/03/08 04:39:06;;;;;;;;;;;-2.60;92.00;;;;;;5030866;28;19928;-84
2022/03/08 04:41:32;;;;;;;;;;;-2.60;92.20;;;;;;5036686;28;19959;-85
2022/03/08 04:43:58;;;;;;;;;;;-2.70;92.30;;;;;;5031001;28;19956;-85
2022/03/08 04:46:24;;;;;;;;;;;-2.70;92.40;;;;;;5032427;28;19917;-85
2022/03/08 04:48:49;;;;;;;;;;;-2.70;92.40;;;;;;5038821;28;19988;-85
2022/03/08 04:51:15;;;;;;;;;;;-2.70;92.30;;;;;;5049429;28;19917;-83
2022/03/08 04:53:40;;;;;;;;;;;-2.70;92.30;;;;;;5045090;28;19959;-85
2022/03/08 04:56:06;;;;;;;;;;;-2.80;92.20;;;;;;5031889;28;20015;-85
2022/03/08 04:58:31;;;;;;;;;;;-2.80;92.10;;;;;;5021552;28;19922;-84
2022/03/08 05:00:57;;;;;;;;;;;-2.80;92.20;;;;;;5040626;28;20304;-85
2022/03/08 05:03:22;;;;;;;;;;;-2.80;93.80;;;;;;5047573;28;19924;-85
2022/03/08 05:05:48;;;;;;;;;;;-2.90;94.70;;;;;;5031558;28;19942;-85
2022/03/08 05:08:14;;;;;;;;;;;-3.00;95.60;;;;;;5038638;28;19917;-85
2022/03/08 05:10:43;;;;;;;;;;;-3.00;96.10;;;;;;5033041;28;19921;-85
2022/03/08 05:13:08;;;;;;;;;;;-3.00;97.50;;;;;;5042964;28;19972;-85
2022/03/08 05:15:35;;;;;;;;;;;-3.10;97.10;;;;;;5038647;28;19925;-84
2022/03/08 05:18:01;;;;;;;;;;;-3.10;96.30;;;;;;5021353;28;19921;-85
2022/03/08 05:20:26;;;;;;;;;;;-3.10;96.00;;;;;;5034180;28;19925;-85
2022/03/08 05:22:52;;;;;;;;;;;-3.10;95.70;;;;;;5023153;28;19917;-85
2022/03/08 05:25:17;;;;;;;;;;;-3.00;95.50;;;;;;5049327;28;19917;-85
2022/03/08 05:27:43;;;;;;;;;;;-3.00;95.50;;;;;;5037999;28;19971;-85
2022/03/08 05:30:08;;;;;;;;;;;-3.00;95.40;;;;;;5047969;28;19997;-85
2022/03/08 05:32:34;;;;;;;;;;;-3.00;95.40;;;;;;5053642;28;20384;-85
2022/03/08 05:35:00;;;;;;;;;;;-2.90;95.30;;;;;;5022497;28;19948;-85
2022/03/08 05:37:25;;;;;;;;;;;-2.90;95.40;;;;;;5041202;28;19932;-85
2022/03/08 05:39:51;;;;;;;;;;;-2.90;95.60;;;;;;5027159;28;20019;-85
2022/03/08 05:42:16;;;;;;;;;;;-3.00;95.80;;;;;;5045925;28;20006;-85
2022/03/08 05:44:42;;;;;;;;;;;-3.00;95.70;;;;;;5049252;28;19913;-86
2022/03/08 05:47:07;;;;;;;;;;;-3.00;95.60;;;;;;5038567;28;19920;-85
2022/03/08 05:49:33;;;;;;;;;;;-3.00;95.90;;;;;;5031560;28;19995;-85
2022/03/08 05:51:58;;;;;;;;;;;-3.00;96.70;;;;;;5055661;28;19913;-84
2022/03/08 05:54:24;;;;;;;;;;;-3.10;96.90;;;;;;5023703;28;19959;-85
2022/03/08 05:56:49;;;;;;;;;;;-3.00;97.00;;;;;;5038119;28;19928;-85
2022/03/08 05:59:15;;;;;;;;;;;-3.10;97.10;;;;;;5048214;28;19909;-85
2022/03/08 06:01:40;;;;;;;;;;;-3.10;97.10;;;;;;5056296;28;19960;-86
2022/03/08 06:04:06;;;;;;;;;;;-3.10;97.60;;;;;;5038059;28;19928;-86
2022/03/08 06:06:32;;;;;;;;;;;-3.10;98.20;;;;;;5046951;28;20345;-84
2022/03/08 06:08:57;;;;;;;;;;;-3.10;98.60;;;;;;5044821;28;19913;-86
2022/03/08 06:11:23;;;;;;;;;;;-3.10;98.80;;;;;;5053567;28;19952;-86
2022/03/08 06:13:48;;;;;;;;;;;-3.10;99.00;;;;;;5048447;28;20519;-84
2022/03/08 06:16:14;;;;;;;;;;;-3.10;99.40;;;;;;5057186;28;19928;-86
2022/03/08 06:18:40;;;;;;;;;;;-3.00;99.10;;;;;;5030525;28;19928;-85
2022/03/08 06:21:05;;;;;;;;;;;-3.00;99.40;;;;;;5089423;23;19978;-87
2022/03/08 06:23:31;;;;;;;;;;;-3.00;99.80;;;;;;5087682;28;19916;-86
2022/03/08 06:25:56;;;;;;;;;;;-2.90;99.90;;;;;;5085185;28;19914;-85
2022/03/08 06:28:22;;;;;;;;;;;-2.90;99.90;;;;;;5077573;28;20428;-86
2022/03/08 06:30:47;;;;;;;;;;;-2.90;99.90;;;;;;5084583;28;19912;-86
2022/03/08 06:33:13;;;;;;;;;;;-2.90;99.90;;;;;;5068634;28;19966;-86
2022/03/08 06:35:38;;;;;;;;;;;-2.80;99.90;;;;;;5073372;28;20007;-86
2022/03/08 06:38:04;;;;;;;;;;;-2.70;99.90;;;;;;5054825;28;20319;-86
2022/03/08 06:40:29;;;;;;;;;;;-2.60;99.30;;;;;;5072245;28;19913;-85
2022/03/08 06:42:55;;;;;;;;;;;-2.50;98.70;;;;;;5059327;28;19913;-85
2022/03/08 06:45:20;;;;;;;;;;;-2.40;98.10;;;;;;5051019;28;20288;-85
2022/03/08 06:47:46;;;;;;;;;;;-2.20;97.60;;;;;;5050078;28;20004;-85
2022/03/08 06:50:11;;;;;;;;;;;-2.10;96.10;;;;;;5063588;28;19919;-85
2022/03/08 06:52:37;;;;;;;;;;;-1.90;95.10;;;;;;5050159;28;19955;-85
2022/03/08 06:55:03;;;;;;;;;;;-1.80;94.60;;;;;;5051679;28;19909;-86
2022/03/08 06:57:29;;;;;;;;;;;-1.60;93.10;;;;;;5049575;28;19913;-86
2022/03/08 06:59:55;;;;;;;;;;;-1.50;92.30;;;;;;5034001;28;19913;-86
2022/03/08 07:02:21;;;;;;;;;;;-1.30;90.80;;;;;;5051592;28;19913;-85
2022/03/08 07:04:46;;;;;;;;;;;-1.20;90.10;;;;;;5051584;28;20288;-85
2022/03/08 07:07:21;;;;;;;;;;;-1.00;89.20;;;;;;5032793;28;19913;-85
2022/03/08 07:09:47;;;;;;;;;;;-0.90;88.30;;;;;;5049967;28;20316;-86
2022/03/08 07:12:12;;;;;;;;;;;-0.80;88.60;;;;;;5050097;28;19913;-85
2022/03/08 07:14:38;;;;;;;;;;;-0.70;86.10;;;;;;5049466;28;19913;-86
2022/03/08 07:17:03;;;;;;;;;;;-0.60;84.60;;;;;;5063329;28;20439;-86
2022/03/08 07:19:29;;;;;;;;;;;-0.50;83.60;;;;;;5069853;28;19917;-86
2022/03/08 07:21:54;;;;;;;;;;;-0.30;81.60;;;;;;5063406;28;19912;-85
2022/03/08 07:24:20;;;;;;;;;;;-0.30;80.20;;;;;;5080498;28;19912;-86
2022/03/08 07:26:46;;;;;;;;;;;-0.10;78.30;;;;;;5074396;28;19966;-86
2022/03/08 07:29:11;;;;;;;;;;;-0.10;78.10;;;;;;5071888;28;19995;-87
2022/03/08 07:31:37;;;;;;;;;;;0.00;79.40;;;;;;5069243;28;20410;-86
2022/03/08 07:34:02;;;;;;;;;;;0.10;76.90;;;;;;5077750;28;20411;-87
2022/03/08 07:36:28;;;;;;;;;;;0.20;75.70;;;;;;5072042;28;19916;-86
2022/03/08 07:38:53;;;;;;;;;;;0.30;76.00;;;;;;5064055;28;19967;-86
2022/03/08 07:41:19;;;;;;;;;;;0.40;75.80;;;;;;5077171;28;20430;-87
2022/03/08 07:43:44;;;;;;;;;;;0.50;74.50;;;;;;5074392;28;19912;-86
2022/03/08 07:46:10;;;;;;;;;;;0.60;74.50;;;;;;5060754;28;20003;-86
2022/03/08 07:48:36;;;;;;;;;;;0.70;73.20;;;;;;5080098;28;19923;-87
2022/03/08 07:51:02;;;;;;;;;;;0.80;72.50;;;;;;5070445;28;19917;-86
2022/03/08 07:53:27;;;;;;;;;;;0.90;71.60;;;;;;5084682;28;19916;-86
2022/03/08 07:55:53;;;;;;;;;;;1.00;72.30;;;;;;5072150;28;19926;-87
2022/03/08 07:58:19;;;;;;;;;;;1.10;71.00;;;;;;5083542;28;19932;-86
2022/03/08 08:00:44;;;;;;;;;;;1.20;71.70;;;;;;5085195;28;19951;-86
2022/03/08 08:03:10;;;;;;;;;;;1.30;70.10;;;;;;5055548;28;19959;-87
2022/03/08 08:05:37;;;;;;;;;;;1.30;68.90;;;;;;5084982;28;20385;-86
2022/03/08 08:08:03;;;;;;;;;;;1.40;67.90;;;;;;5071596;28;19916;-86
2022/03/08 08:10:29;;;;;;;;;;;1.50;68.10;;;;;;5061362;28;19975;-87
2022/03/08 08:12:54;;;;;;;;;;;1.50;67.00;;;;;;5076690;28;20346;-86
2022/03/08 08:15:20;;;;;;;;;;;1.60;67.00;;;;;;5070204;28;19957;-86
2022/03/08 08:17:45;;;;;;;;;;;1.70;67.70;;;;;;5083538;28;19924;-87
2022/03/08 08:20:11;;;;;;;;;;;1.80;67.00;;;;;;5070670;28;20295;-87
2022/03/08 08:22:37;;;;;;;;;;;1.80;65.80;;;;;;5053395;28;19927;-87
2022/03/08 08:25:03;;;;;;;;;;;1.90;64.90;;;;;;5084106;28;19912;-87
2022/03/08 08:27:28;;;;;;;;;;;1.90;65.90;;;;;;5077995;28;20053;-86
2022/03/08 08:29:54;;;;;;;;;;;2.00;66.20;;;;;;5090230;28;20022;-86
2022/03/08 08:32:19;;;;;;;;;;;2.10;65.60;;;;;;5075901;28;19942;-87
2022/03/08 08:34:45;;;;;;;;;;;2.20;63.70;;;;;;5088466;28;19916;-86
2022/03/08 08:37:11;;;;;;;;;;;2.20;63.50;;;;;;5079436;28;19920;-87
2022/03/08 08:39:36;;;;;;;;;;;2.30;63.20;;;;;;5075546;28;19944;-86
2022/03/08 08:42:02;;;;;;;;;;;2.40;62.70;;;;;;5076586;28;19998;-87
2022/03/08 08:44:27;;;;;;;;;;;2.40;62.30;;;;;;5091512;28;20360;-87
2022/03/08 08:46:53;;;;;;;;;;;2.50;61.40;;;;;;5078738;28;20368;-87
2022/03/08 08:49:19;;;;;;;;;;;2.50;60.90;;;;;;5091016;28;19927;-87
2022/03/08 08:51:44;;;;;;;;;;;2.50;61.40;;;;;;5074328;28;20372;-87
2022/03/08 08:54:09;;;;;;;;;;;2.60;61.00;;;;;;5063388;28;19916;-86
2022/03/08 08:56:35;;;;;;;;;;;2.70;60.70;;;;;;5076335;28;19919;-87
2022/03/08 08:59:04;;;;;;;;;;;2.70;60.70;;;;;;5071952;28;20273;-86
2022/03/08 09:01:30;;;;;;;;;;;2.70;60.10;;;;;;5072128;28;19924;-87
2022/03/08 09:03:56;;;;;;;;;;;2.80;59.80;;;;;;5071885;28;19931;-86
2022/03/08 09:06:21;;;;;;;;;;;2.80;59.40;;;;;;5078840;28;20304;-87
2022/03/08 09:08:47;;;;;;;;;;;2.80;59.40;;;;;;5080307;28;19921;-87
2022/03/08 09:11:16;;;;;;;;;;;2.90;60.00;;;;;;5052765;28;19921;-87
2022/03/08 09:13:42;;;;;;;;;;;2.90;59.30;;;;;;5054659;28;20020;-87
2022/03/08 09:16:08;;;;;;;;;;;2.90;59.30;;;;;;5076246;28;19912;-87
2022/03/08 09:18:34;;;;;;;;;;;3.00;59.50;;;;;;5070288;28;20308;-86
2022/03/08 09:20:59;;;;;;;;;;;3.00;59.60;;;;;;5050634;28;19924;-86
2022/03/08 09:23:25;;;;;;;;;;;3.00;58.60;;;;;;5068577;28;19917;-86
2022/03/08 09:25:50;;;;;;;;;;;3.00;58.50;;;;;;5058928;28;20089;-86
2022/03/08 09:28:15;;;;;;;;;;;3.10;57.90;;;;;;5065154;28;19921;-87
2022/03/08 09:30:42;;;;;;;;;;;3.10;57.90;;;;;;5059555;28;20357;-87
2022/03/08 09:33:08;;;;;;;;;;;3.20;57.40;;;;;;5078731;28;20069;-87
2022/03/08 09:35:34;;;;;;;;;;;3.20;57.60;;;;;;5091748;28;19998;-86
2022/03/08 09:38:00;;;;;;;;;;;3.30;57.80;;;;;;5089996;28;19916;-86
2022/03/08 09:40:26;;;;;;;;;;;3.30;57.40;;;;;;5091542;28;20391;-87
2022/03/08 09:42:51;;;;;;;;;;;3.40;58.10;;;;;;5092246;28;19912;-87
2022/03/08 09:45:17;;;;;;;;;;;3.50;57.40;;;;;;5092619;28;19908;-87
2022/03/08 09:47:43;;;;;;;;;;;3.50;57.40;;;;;;5090691;28;19908;-87
2022/03/08 09:50:10;;;;;;;;;;;3.60;56.30;;;;;;5091024;28;20008;-87
2022/03/08 09:52:36;;;;;;;;;;;3.60;56.90;;;;;;5090927;28;19916;-86
2022/03/08 09:55:02;;;;;;;;;;;3.70;57.60;;;;;;5091116;28;19912;-87
2022/03/08 09:57:27;;;;;;;;;;;3.70;56.90;;;;;;5090548;28;19961;-86
2022/03/08 09:59:53;;;;;;;;;;;3.80;56.60;;;;;;5090995;28;19920;-87
2022/03/08 10:02:18;;;;;;;;;;;3.80;55.50;;;;;;5090970;28;20372;-87
2022/03/08 10:04:44;;;;;;;;;;;3.90;56.10;;;;;;5090918;28;19994;-87
2022/03/08 10:07:11;;;;;;;;;;;3.90;55.30;;;;;;5073468;28;19912;-87
2022/03/08 10:09:37;;;;;;;;;;;3.90;54.10;;;;;;5090790;28;19908;-86
2022/03/08 10:12:13;;;;;;;;;;;4.00;53.50;;;;;;5092160;28;19966;-87
2022/03/08 10:14:39;;;;;;;;;;;4.00;53.30;;;;;;5090742;28;19934;-86
2022/03/08 10:17:05;;;;;;;;;;;4.00;52.40;;;;;;5091240;28;20460;-87
2022/03/08 10:19:30;;;;;;;;;;;4.10;51.80;;;;;;5090278;28;20011;-87
2022/03/08 10:21:57;;;;;;;;;;;4.00;52.20;;;;;;5073754;28;19916;-87
2022/03/08 10:24:24;;;;;;;;;;;4.10;52.00;;;;;;5090613;28;19916;-87
2022/03/08 10:26:53;;;;;;;;;;;4.10;51.80;;;;;;5090060;28;19920;-87
2022/03/08 10:29:23;;;;;;;;;;;4.10;51.50;;;;;;5090352;28;19912;-87
2022/03/08 10:31:49;;;;;;;;;;;4.20;51.80;;;;;;5073319;28;19912;-87
2022/03/08 10:34:17;;;;;;;;;;;4.30;51.90;;;;;;5090308;28;19962;-87
2022/03/08 10:37:03;;;;;;;;;;;4.40;52.00;;;;;;5089759;28;20330;-87
2022/03/08 10:39:28;;;;;;;;;;;4.40;51.00;;;;;;5090342;28;19935;-86
2022/03/08 10:41:56;;;;;;;;;;;4.50;51.50;;;;;;5090192;28;20364;-87
2022/03/08 10:44:32;;;;;;;;;;;4.50;51.20;;;;;;5089898;28;19969;-87
2022/03/08 10:47:05;;;;;;;;;;;4.60;51.00;;;;;;5089792;28;20395;-86
2022/03/08 10:49:32;;;;;;;;;;;4.70;50.40;;;;;;5089878;28;20020;-87
2022/03/08 10:51:58;;;;;;;;;;;4.70;50.20;;;;;;5089963;28;19939;-87
2022/03/08 10:54:24;;;;;;;;;;;4.80;49.90;;;;;;5089912;28;20372;-87
2022/03/08 10:56:49;;;;;;;;;;;4.80;49.90;;;;;;5090599;28;20295;-87
2022/03/08 10:59:15;;;;;;;;;;;4.90;50.70;;;;;;5072804;28;19919;-87
2022/03/08 11:01:41;;;;;;;;;;;5.00;50.50;;;;;;5072577;28;19955;-87
2022/03/08 11:04:16;;;;;;;;;;;5.00;50.30;;;;;;5089722;28;19916;-87
2022/03/08 11:06:42;;;;;;;;;;;5.10;50.20;;;;;;5090748;28;19912;-86
2022/03/08 11:09:08;;;;;;;;;;;5.20;51.30;;;;;;5089728;28;20391;-87
2022/03/08 11:11:34;;;;;;;;;;;5.30;49.80;;;;;;5089305;28;19912;-87
2022/03/08 11:13:59;;;;;;;;;;;5.30;49.40;;;;;;5091043;28;19916;-87
2022/03/08 11:16:26;;;;;;;;;;;5.30;49.30;;;;;;5089654;28;20320;-86
2022/03/08 11:18:52;;;;;;;;;;;5.40;49.40;;;;;;5072588;28;19919;-87
2022/03/08 11:21:20;;;;;;;;;;;5.40;49.60;;;;;;5088489;28;20364;-87
2022/03/08 11:23:45;;;;;;;;;;;5.50;50.30;;;;;;5072830;28;20049;-87
2022/03/08 11:26:17;;;;;;;;;;;5.50;49.50;;;;;;5089472;28;19916;-86
2022/03/08 11:28:46;;;;;;;;;;;5.60;48.90;;;;;;5088860;28;19962;-87
2022/03/08 11:31:15;;;;;;;;;;;5.70;49.50;;;;;;5090426;28;19912;-87
2022/03/08 11:33:50;;;;;;;;;;;5.80;50.10;;;;;;5089306;28;19919;-87
2022/03/08 11:36:19;;;;;;;;;;;5.80;49.10;;;;;;5089070;28;19908;-87
2022/03/08 11:39:05;;;;;;;;;;;6.00;48.80;;;;;;5089319;28;20006;-87
2022/03/08 11:41:33;;;;;;;;;;;6.00;47.90;;;;;;5090651;28;19908;-87
2022/03/08 11:43:58;;;;;;;;;;;6.10;47.60;;;;;;5072764;28;20338;-87
2022/03/08 11:46:24;;;;;;;;;;;6.20;47.80;;;;;;5089254;28;19913;-86
2022/03/08 11:48:52;;;;;;;;;;;6.30;48.00;;;;;;5071808;28;20197;-86
2022/03/08 11:51:18;;;;;;;;;;;6.30;48.40;;;;;;5088673;28;19965;-87
2022/03/08 11:53:47;;;;;;;;;;;6.40;48.10;;;;;;5089105;28;19908;-87
2022/03/08 11:56:20;;;;;;;;;;;6.50;47.80;;;;;;5089297;28;19916;-87
2022/03/08 11:58:50;;;;;;;;;;;6.60;47.80;;;;;;5088768;28;19951;-87
2022/03/08 12:01:26;;;;;;;;;;;6.60;46.50;;;;;;5073814;28;20011;-87
2022/03/08 12:03:57;;;;;;;;;;;6.60;45.60;;;;;;5093251;28;19954;-87
2022/03/08 12:06:32;;;;;;;;;;;6.60;45.80;;;;;;5093334;28;20010;-87
2022/03/08 12:09:00;;;;;;;;;;;6.60;46.10;;;;;;5093079;28;19981;-86
2022/03/08 12:11:30;;;;;;;;;;;6.70;46.20;;;;;;5093038;28;20008;-86
2022/03/08 12:14:02;;;;;;;;;;;6.70;45.50;;;;;;5076106;28;20424;-86
2022/03/08 12:16:27;;;;;;;;;;;6.70;45.20;;;;;;5092967;28;19963;-87
2022/03/08 12:18:54;;;;;;;;;;;6.80;45.50;;;;;;5075518;28;19947;-87
2022/03/08 12:21:29;;;;;;;;;;;6.80;45.00;;;;;;5081322;22;20421;-84
2022/03/08 12:23:56;;;;;;;;;;;6.80;44.80;;;;;;5053174;28;19944;-85
2022/03/08 12:26:27;;;;;;;;;;;6.90;45.00;;;;;;5036525;28;19921;-85
2022/03/08 12:29:02;;;;;;;;;;;6.90;45.40;;;;;;5053052;28;19908;-84
2022/03/08 12:31:27;;;;;;;;;;;6.90;45.60;;;;;;5053320;28;19963;-84
2022/03/08 12:34:06;;;;;;;;;;;6.90;44.50;;;;;;5036490;28;20469;-84
2022/03/08 12:36:35;;;;;;;;;;;6.90;44.50;;;;;;5053407;28;20107;-84
2022/03/08 12:39:01;;;;;;;;;;;6.90;44.60;;;;;;5053108;28;20318;-85
2022/03/08 12:41:27;;;;;;;;;;;7.00;44.70;;;;;;5053072;28;19931;-84
2022/03/08 12:44:00;;;;;;;;;;;7.00;44.10;;;;;;5052984;28;19915;-85
2022/03/08 12:46:26;;;;;;;;;;;7.00;44.60;;;;;;5036382;28;19920;-84
2022/03/08 12:48:53;;;;;;;;;;;7.00;43.90;;;;;;5052553;28;19956;-84
2022/03/08 12:51:22;;;;;;;;;;;7.10;43.40;;;;;;5053093;28;19953;-84
2022/03/08 12:53:53;;;;;;;;;;;7.00;43.80;;;;;;5052602;28;19913;-84
2022/03/08 12:56:19;;;;;;;;;;;7.10;44.20;;;;;;5052697;28;20378;-84
2022/03/08 12:58:44;;;;;;;;;;;7.10;45.10;;;;;;5035620;28;19916;-84
2022/03/08 13:01:14;;;;;;;;;;;7.10;44.80;;;;;;5052628;28;19954;-84
2022/03/08 13:03:45;;;;;;;;;;;7.20;44.70;;;;;;5052656;28;19916;-84
2022/03/08 13:06:10;;;;;;;;;;;7.20;44.00;;;;;;5052487;28;19920;-84
2022/03/08 13:08:37;;;;;;;;;;;7.20;43.80;;;;;;5052306;28;20360;-84
2022/03/08 13:11:04;;;;;;;;;;;7.20;43.70;;;;;;5052356;28;20383;-84
2022/03/08 13:13:30;;;;;;;;;;;7.20;44.20;;;;;;5051009;28;19951;-84
2022/03/08 13:15:55;;;;;;;;;;;7.20;44.00;;;;;;5052171;28;19956;-84
2022/03/08 13:18:25;;;;;;;;;;;7.30;43.90;;;;;;5035213;28;19925;-84
2022/03/08 13:20:54;;;;;;;;;;;7.30;44.40;;;;;;5052198;28;20450;-84
2022/03/08 13:23:25;;;;;;;;;;;7.30;43.60;;;;;;5052642;28;19931;-84
2022/03/08 13:25:52;;;;;;;;;;;7.20;44.40;;;;;;5052375;28;19943;-84
2022/03/08 13:28:18;;;;;;;;;;;7.30;43.90;;;;;;5052130;28;20377;-84
2022/03/08 13:30:48;;;;;;;;;;;7.30;44.10;;;;;;5035305;28;19913;-84
2022/03/08 13:33:41;;;;;;;;;;;7.20;43.70;;;;;;5051764;28;19916;-84
2022/03/08 13:36:17;;;;;;;;;;;7.30;44.00;;;;;;5049445;28;19909;-84
2022/03/08 13:38:47;;;;;;;;;;;7.20;44.40;;;;;;5051644;28;20568;-84
2022/03/08 13:41:18;;;;;;;;;;;7.30;44.50;;;;;;5034983;28;20004;-84
2022/03/08 13:43:45;;;;;;;;;;;7.20;44.30;;;;;;5052852;28;19920;-84
2022/03/08 13:46:18;;;;;;;;;;;7.20;45.00;;;;;;5035123;28;19924;-84
2022/03/08 13:48:48;;;;;;;;;;;7.30;44.80;;;;;;5034816;28;19917;-84
2022/03/08 13:51:14;;;;;;;;;;;7.30;44.90;;;;;;5034683;28;19913;-84
2022/03/08 13:53:40;;;;;;;;;;;7.30;44.60;;;;;;5051359;28;19908;-84
2022/03/08 13:56:05;;;;;;;;;;;7.30;44.30;;;;;;5051136;28;20272;-84
2022/03/08 13:58:33;;;;;;;;;;;7.30;44.50;;;;;;5034477;28;19927;-84
2022/03/08 14:00:58;;;;;;;;;;;7.30;45.50;;;;;;5035984;28;19919;-85
2022/03/08 14:03:24;;;;;;;;;;;7.30;44.60;;;;;;5051831;28;19909;-84
2022/03/08 14:05:52;;;;;;;;;;;7.30;45.00;;;;;;5051641;28;19952;-85
2022/03/08 14:08:22;;;;;;;;;;;7.30;45.10;;;;;;5051574;28;19908;-85
2022/03/08 14:10:55;;;;;;;;;;;7.30;45.40;;;;;;5034999;28;19940;-84
2022/03/08 14:13:22;;;;;;;;;;;7.30;44.80;;;;;;5051625;28;19913;-84
2022/03/08 14:15:51;;;;;;;;;;;7.30;44.80;;;;;;5051751;28;19962;-85
2022/03/08 14:18:16;;;;;;;;;;;7.30;45.20;;;;;;5051120;28;19920;-84
2022/03/08 14:20:42;;;;;;;;;;;7.30;45.10;;;;;;5051209;28;19917;-84